Time;durP1;ratioP1;P1;durP2;ratioP2;P2;SDS_P1;SDS_P2;PMS_P1;PMS_P2;Temp;Humidity;BMP_temperature;BMP_pressure;BME280_temperature;BME280_humidity;BME280_pressure;Samples;Min_cycle;Max_cycle;Signal;HPM_P1;HPM_P2
2022/07/20 00:02:04;;;;;;;6.55;3.20;;;;;;;;;;5117061;27;20047;-50
2022/07/20 00:04:30;;;;;;;3.53;3.05;;;;;;;;;;5112546;27;20100;-51
2022/07/20 00:06:56;;;;;;;5.57;3.83;;;;;;;;;;5115324;27;20097;-51
2022/07/20 00:12:05;;;;;;;4.32;3.92;;;;;;;;;;5113673;27;20042;-54
2022/07/20 00:14:31;;;;;;;3.88;3.28;;;;;;;;;;5113320;27;20055;-54
2022/07/20 00:16:56;;;;;;;4.75;4.05;;;;;;;;;;5111993;28;20063;-49
2022/07/20 00:19:21;;;;;;;4.65;3.70;;;;;;;;;;5108568;27;20043;-52
2022/07/20 00:21:47;;;;;;;3.53;3.00;;;;;;;;;;5118262;27;20047;-49
2022/07/20 00:24:12;;;;;;;3.78;3.40;;;;;;;;;;5115859;27;20162;-47
2022/07/20 00:26:37;;;;;;;3.88;3.35;;;;;;;;;;5115079;27;20382;-46
2022/07/20 00:29:03;;;;;;;3.75;3.20;;;;;;;;;;5115134;28;20044;-50
2022/07/20 00:31:28;;;;;;;4.75;4.25;;;;;;;;;;5114767;27;20035;-47
2022/07/20 00:33:53;;;;;;;6.90;3.80;;;;;;;;;;5113227;27;20520;-48
2022/07/20 00:36:19;;;;;;;3.38;2.78;;;;;;;;;;5113892;27;20088;-50
2022/07/20 00:38:45;;;;;;;5.15;3.63;;;;;;;;;;5099114;28;20482;-49
2022/07/20 00:41:11;;;;;;;3.85;3.03;;;;;;;;;;5115715;27;20670;-46
2022/07/20 00:43:53;;;;;;;4.65;3.88;;;;;;;;;;5112664;27;20040;-47
2022/07/20 00:46:18;;;;;;;4.55;2.65;;;;;;;;;;5115770;27;20061;-49
2022/07/20 00:48:43;;;;;;;4.72;3.72;;;;;;;;;;5116151;27;20043;-52
2022/07/20 00:51:09;;;;;;;7.65;4.07;;;;;;;;;;5112407;27;20074;-51
2022/07/20 00:53:34;;;;;;;4.10;3.70;;;;;;;;;;5116671;27;20043;-51
2022/07/20 00:55:59;;;;;;;5.25;4.78;;;;;;;;;;5089303;28;20086;-51
2022/07/20 00:58:25;;;;;;;5.10;4.50;;;;;;;;;;5114127;27;20035;-52
2022/07/20 01:00:50;;;;;;;8.50;4.40;;;;;;;;;;5115349;27;20043;-48
2022/07/20 01:03:15;;;;;;;5.80;4.30;;;;;;;;;;5112672;27;20051;-50
2022/07/20 01:05:41;;;;;;;5.50;4.93;;;;;;;;;;5113728;27;20047;-49
2022/07/20 01:08:06;;;;;;;5.53;4.75;;;;;;;;;;5112499;27;20047;-52
2022/07/20 01:10:31;;;;;;;4.60;4.20;;;;;;;;;;5109262;27;20047;-50
2022/07/20 01:12:57;;;;;;;6.10;4.88;;;;;;;;;;5116572;27;20046;-46
2022/07/20 01:15:22;;;;;;;5.75;4.85;;;;;;;;;;5113223;27;20414;-51
2022/07/20 01:17:47;;;;;;;5.25;4.75;;;;;;;;;;5116077;28;20443;-47
2022/07/20 01:20:17;;;;;;;4.25;3.45;;;;;;;;;;5111563;28;20047;-47
2022/07/20 01:22:46;;;;;;;7.13;5.85;;;;;;;;;;5115254;27;20071;-49
2022/07/20 01:25:11;;;;;;;6.97;4.25;;;;;;;;;;5112937;27;20180;-49
2022/07/20 01:27:36;;;;;;;5.07;3.65;;;;;;;;;;5113509;27;20490;-44
2022/07/20 01:30:02;;;;;;;5.75;4.45;;;;;;;;;;5115832;27;20086;-48
2022/07/20 01:32:27;;;;;;;6.82;5.18;;;;;;;;;;5114534;27;20039;-44
2022/07/20 01:34:53;;;;;;;9.75;6.40;;;;;;;;;;5114114;27;20067;-51
2022/07/20 01:37:18;;;;;;;12.27;4.47;;;;;;;;;;5119142;28;20419;-49
2022/07/20 01:39:44;;;;;;;5.65;4.25;;;;;;;;;;5114390;27;20043;-45
2022/07/20 01:42:09;;;;;;;6.50;4.90;;;;;;;;;;5116833;28;20593;-46
2022/07/20 01:44:35;;;;;;;4.13;3.72;;;;;;;;;;5115938;27;20093;-52
2022/07/20 01:47:01;;;;;;;4.10;3.70;;;;;;;;;;5111837;27;20090;-52
2022/07/20 01:49:28;;;;;;;3.65;3.33;;;;;;;;;;5115232;27;20108;-46
2022/07/20 01:51:53;;;;;;;9.43;3.42;;;;;;;;;;5115504;27;20131;-52
2022/07/20 01:54:19;;;;;;;4.55;4.07;;;;;;;;;;5113339;27;20726;-49
2022/07/20 01:56:44;;;;;;;6.60;3.55;;;;;;;;;;5116319;27;20422;-48
2022/07/20 01:59:09;;;;;;;3.63;3.33;;;;;;;;;;5116143;27;20406;-50
2022/07/20 02:01:35;;;;;;;17.30;4.35;;;;;;;;;;5114240;27;20078;-55
2022/07/20 02:04:01;;;;;;;5.57;4.03;;;;;;;;;;5118831;27;20051;-51
2022/07/20 02:06:26;;;;;;;6.30;4.60;;;;;;;;;;5113268;27;20538;-54
2022/07/20 02:08:51;;;;;;;6.30;3.80;;;;;;;;;;5112281;28;20384;-53
2022/07/20 02:11:17;;;;;;;4.85;3.95;;;;;;;;;;5113585;28;20063;-53
2022/07/20 02:13:42;;;;;;;8.15;3.53;;;;;;;;;;5113771;27;20126;-50
2022/07/20 02:16:16;;;;;;;5.38;3.90;;;;;;;;;;5108376;28;20052;-51
2022/07/20 02:18:46;;;;;;;9.13;4.35;;;;;;;;;;5106387;27;20078;-49
2022/07/20 02:21:12;;;;;;;4.85;3.97;;;;;;;;;;5113357;27;20035;-50
2022/07/20 02:23:37;;;;;;;5.47;3.38;;;;;;;;;;5114874;28;20042;-49
2022/07/20 02:26:03;;;;;;;5.10;4.07;;;;;;;;;;5111914;27;20036;-51
2022/07/20 02:28:28;;;;;;;7.93;5.32;;;;;;;;;;5114107;28;20143;-46
2022/07/20 02:30:53;;;;;;;4.22;3.83;;;;;;;;;;5114490;27;20039;-49
2022/07/20 02:33:19;;;;;;;4.82;3.85;;;;;;;;;;5114102;27;20035;-50
2022/07/20 02:35:44;;;;;;;12.68;4.15;;;;;;;;;;5114877;27;20077;-49
2022/07/20 02:38:09;;;;;;;13.48;3.90;;;;;;;;;;5110279;27;20043;-48
2022/07/20 02:40:35;;;;;;;10.32;4.30;;;;;;;;;;5114950;27;20042;-53
2022/07/20 02:43:00;;;;;;;6.72;2.83;;;;;;;;;;5112359;27;20073;-49
2022/07/20 02:45:25;;;;;;;4.72;3.55;;;;;;;;;;5113231;27;20047;-51
2022/07/20 02:47:51;;;;;;;7.88;3.85;;;;;;;;;;5111915;27;20089;-50
2022/07/20 02:50:16;;;;;;;4.45;4.00;;;;;;;;;;5106257;28;20063;-49
2022/07/20 02:52:42;;;;;;;6.53;4.15;;;;;;;;;;5110750;27;20048;-49
2022/07/20 02:55:08;;;;;;;5.28;4.78;;;;;;;;;;5093988;28;20067;-48
2022/07/20 02:57:33;;;;;;;5.22;4.53;;;;;;;;;;5112854;27;20650;-49
2022/07/20 02:59:59;;;;;;;6.97;4.53;;;;;;;;;;5112850;27;20058;-49
2022/07/20 03:02:25;;;;;;;6.22;3.60;;;;;;;;;;5110757;27;20047;-52
2022/07/20 03:04:50;;;;;;;4.88;4.25;;;;;;;;;;5109514;27;20052;-49
2022/07/20 03:07:16;;;;;;;4.13;3.72;;;;;;;;;;5111695;27;20050;-48
2022/07/20 03:09:42;;;;;;;3.30;3.00;;;;;;;;;;5112919;27;20076;-48
2022/07/20 03:12:08;;;;;;;4.85;3.97;;;;;;;;;;5112536;27;20063;-52
2022/07/20 03:14:33;;;;;;;3.33;2.92;;;;;;;;;;5115769;27;20116;-50
2022/07/20 03:16:58;;;;;;;4.70;4.28;;;;;;;;;;5112003;27;20042;-53
2022/07/20 03:19:24;;;;;;;7.72;3.28;;;;;;;;;;5114297;27;20169;-50
2022/07/20 03:21:49;;;;;;;10.85;3.80;;;;;;;;;;5114133;27;20137;-49
2022/07/20 03:24:14;;;;;;;4.22;3.28;;;;;;;;;;5112988;28;20077;-49
2022/07/20 03:26:40;;;;;;;3.33;3.03;;;;;;;;;;5114178;27;20470;-48
2022/07/20 03:29:05;;;;;;;7.68;3.85;;;;;;;;;;5107853;28;20059;-51
2022/07/20 03:31:30;;;;;;;3.67;2.92;;;;;;;;;;5109839;27;20036;-48
2022/07/20 03:33:55;;;;;;;4.35;3.78;;;;;;;;;;5113801;27;20039;-45
2022/07/20 03:36:21;;;;;;;7.32;3.58;;;;;;;;;;5114413;27;20127;-52
2022/07/20 03:38:49;;;;;;;3.50;2.70;;;;;;;;;;5111208;28;20127;-46
2022/07/20 03:41:15;;;;;;;4.55;3.50;;;;;;;;;;5109879;27;20179;-49
2022/07/20 03:43:40;;;;;;;3.63;3.28;;;;;;;;;;5112488;27;20568;-52
2022/07/20 03:46:05;;;;;;;3.97;3.03;;;;;;;;;;5113781;28;20553;-51
2022/07/20 03:48:31;;;;;;;3.67;3.28;;;;;;;;;;5115026;27;20051;-51
2022/07/20 03:50:56;;;;;;;5.53;4.97;;;;;;;;;;5115608;27;20044;-50
2022/07/20 03:53:21;;;;;;;5.15;4.70;;;;;;;;;;5114452;27;20050;-51
2022/07/20 03:55:47;;;;;;;5.30;4.80;;;;;;;;;;5115508;27;20130;-52
2022/07/20 03:58:12;;;;;;;6.05;4.80;;;;;;;;;;5114916;28;20044;-52
2022/07/20 04:00:37;;;;;;;5.30;4.75;;;;;;;;;;5115004;27;20044;-52
2022/07/20 04:03:03;;;;;;;7.75;4.28;;;;;;;;;;5115354;27;20060;-48
2022/07/20 04:05:29;;;;;;;14.75;4.47;;;;;;;;;;5114656;27;20104;-54
2022/07/20 04:07:55;;;;;;;5.05;4.57;;;;;;;;;;5110466;27;20605;-50
2022/07/20 04:10:20;;;;;;;5.32;4.68;;;;;;;;;;5116617;27;20138;-50
2022/07/20 04:12:45;;;;;;;4.93;3.63;;;;;;;;;;5118001;27;20571;-52
2022/07/20 04:15:11;;;;;;;6.28;5.18;;;;;;;;;;5116488;27;20039;-53
2022/07/20 04:17:39;;;;;;;4.30;3.85;;;;;;;;;;5092808;28;20040;-51
2022/07/20 04:20:05;;;;;;;6.38;4.82;;;;;;;;;;5112812;27;20521;-47
2022/07/20 04:22:31;;;;;;;12.27;4.63;;;;;;;;;;5115720;27;20040;-53
2022/07/20 04:24:56;;;;;;;5.18;4.32;;;;;;;;;;5113965;27;20112;-51
2022/07/20 04:27:21;;;;;;;5.45;4.93;;;;;;;;;;5119941;27;20062;-51
2022/07/20 04:29:47;;;;;;;4.15;3.72;;;;;;;;;;5112439;27;20046;-52
2022/07/20 04:32:12;;;;;;;5.28;4.78;;;;;;;;;;5113695;27;20145;-52
2022/07/20 04:34:38;;;;;;;6.63;4.90;;;;;;;;;;5115426;27;20525;-49
2022/07/20 04:37:03;;;;;;;4.88;4.38;;;;;;;;;;5110080;27;20667;-48
2022/07/20 04:39:28;;;;;;;5.13;4.60;;;;;;;;;;5109934;27;20047;-47
2022/07/20 04:41:54;;;;;;;5.45;4.22;;;;;;;;;;5118036;27;20437;-50
2022/07/20 04:44:19;;;;;;;11.18;6.15;;;;;;;;;;5108943;27;20040;-51
2022/07/20 04:46:44;;;;;;;8.05;5.43;;;;;;;;;;5113622;27;20505;-50
2022/07/20 04:49:10;;;;;;;5.57;5.07;;;;;;;;;;5116405;27;20062;-46
2022/07/20 04:51:35;;;;;;;12.57;6.00;;;;;;;;;;5114257;27;20039;-51
2022/07/20 04:54:01;;;;;;;6.82;6.05;;;;;;;;;;5111547;27;20097;-48
2022/07/20 04:56:26;;;;;;;8.70;5.22;;;;;;;;;;5111965;27;20043;-49
2022/07/20 04:58:53;;;;;;;8.52;5.70;;;;;;;;;;5113814;27;20051;-47
2022/07/20 05:01:19;;;;;;;7.47;4.88;;;;;;;;;;5109673;27;20170;-49
2022/07/20 05:03:44;;;;;;;4.97;4.57;;;;;;;;;;5113663;27;20505;-48
2022/07/20 05:06:09;;;;;;;4.95;4.45;;;;;;;;;;5109959;28;20119;-48
2022/07/20 05:08:34;;;;;;;6.72;5.05;;;;;;;;;;5097425;28;20059;-45
2022/07/20 05:11:00;;;;;;;5.60;4.93;;;;;;;;;;5116553;27;20410;-47
2022/07/20 05:13:25;;;;;;;5.00;4.20;;;;;;;;;;5117989;27;20035;-44
2022/07/20 05:15:50;;;;;;;6.85;5.40;;;;;;;;;;5112013;27;20035;-48
2022/07/20 05:18:16;;;;;;;14.07;5.28;;;;;;;;;;5113703;27;20044;-47
2022/07/20 05:20:41;;;;;;;5.50;5.00;;;;;;;;;;5114340;27;20040;-44
2022/07/20 05:23:06;;;;;;;7.10;4.97;;;;;;;;;;5113411;28;20036;-47
2022/07/20 05:25:33;;;;;;;6.97;5.63;;;;;;;;;;5094643;27;20051;-50
2022/07/20 05:27:58;;;;;;;7.25;4.70;;;;;;;;;;5097384;27;20627;-48
2022/07/20 05:30:24;;;;;;;7.60;4.85;;;;;;;;;;5112391;28;20141;-44
2022/07/20 05:32:49;;;;;;;10.00;4.63;;;;;;;;;;5115066;27;20555;-48
2022/07/20 05:35:14;;;;;;;4.65;4.18;;;;;;;;;;5114989;27;20495;-51
2022/07/20 05:37:39;;;;;;;7.53;4.68;;;;;;;;;;5111678;27;20063;-48
2022/07/20 05:40:05;;;;;;;5.13;3.97;;;;;;;;;;5113076;27;20055;-53
2022/07/20 05:42:30;;;;;;;4.78;4.35;;;;;;;;;;5117580;27;20043;-53
2022/07/20 05:44:56;;;;;;;9.20;4.90;;;;;;;;;;5116718;27;20065;-52
2022/07/20 05:47:21;;;;;;;6.90;5.32;;;;;;;;;;5114798;27;20043;-50
2022/07/20 05:49:48;;;;;;;15.20;5.82;;;;;;;;;;5115935;27;20039;-50
2022/07/20 05:52:14;;;;;;;5.57;3.83;;;;;;;;;;5114362;27;20039;-50
2022/07/20 05:54:40;;;;;;;6.45;4.90;;;;;;;;;;5117260;27;20456;-51
2022/07/20 05:57:05;;;;;;;7.75;4.85;;;;;;;;;;5111835;28;20039;-52
2022/07/20 05:59:32;;;;;;;8.32;5.18;;;;;;;;;;5114390;27;20481;-47
2022/07/20 06:01:57;;;;;;;6.53;4.55;;;;;;;;;;5108254;28;20138;-51
2022/07/20 06:04:23;;;;;;;11.70;5.20;;;;;;;;;;5113274;27;20131;-49
2022/07/20 06:06:48;;;;;;;11.43;6.28;;;;;;;;;;5115046;27;20344;-48
2022/07/20 06:09:14;;;;;;;7.75;5.35;;;;;;;;;;5114711;27;20566;-51
2022/07/20 06:11:39;;;;;;;21.55;9.90;;;;;;;;;;5110695;27;20050;-49
2022/07/20 06:14:05;;;;;;;8.20;6.18;;;;;;;;;;5113472;27;20073;-50
2022/07/20 06:16:30;;;;;;;15.23;5.45;;;;;;;;;;5116534;27;20039;-51
2022/07/20 06:18:55;;;;;;;8.80;4.95;;;;;;;;;;5114226;27;20051;-51
2022/07/20 06:21:21;;;;;;;7.13;5.95;;;;;;;;;;5111164;27;20032;-52
2022/07/20 06:23:46;;;;;;;26.02;6.82;;;;;;;;;;5109660;27;20043;-50
2022/07/20 06:26:12;;;;;;;6.35;5.78;;;;;;;;;;5112341;27;20047;-53
2022/07/20 06:28:37;;;;;;;10.85;9.70;;;;;;;;;;5107848;27;20130;-53
2022/07/20 06:31:03;;;;;;;14.40;7.10;;;;;;;;;;5112411;28;20047;-46
2022/07/20 06:33:28;;;;;;;8.00;7.00;;;;;;;;;;5113610;27;20063;-51
2022/07/20 06:35:54;;;;;;;7.03;6.32;;;;;;;;;;5110200;27;20626;-50
2022/07/20 06:38:19;;;;;;;10.25;7.30;;;;;;;;;;5114133;27;20040;-49
2022/07/20 06:40:44;;;;;;;9.82;6.50;;;;;;;;;;5112655;27;20073;-48
2022/07/20 06:43:10;;;;;;;12.25;6.13;;;;;;;;;;5107608;28;20062;-52
2022/07/20 06:45:35;;;;;;;12.05;5.75;;;;;;;;;;5113625;27;20130;-51
2022/07/20 06:48:00;;;;;;;14.77;5.00;;;;;;;;;;5114477;27;20514;-50
2022/07/20 06:50:26;;;;;;;4.72;3.67;;;;;;;;;;5110643;27;20387;-52
2022/07/20 06:52:51;;;;;;;20.98;14.93;;;;;;;;;;5108218;27;20046;-50
2022/07/20 06:55:16;;;;;;;8.35;6.18;;;;;;;;;;5112069;28;20082;-45
2022/07/20 06:57:43;;;;;;;11.30;4.38;;;;;;;;;;5113383;27;20116;-48
2022/07/20 07:00:09;;;;;;;4.50;3.90;;;;;;;;;;5117385;27;20100;-47
2022/07/20 07:02:34;;;;;;;5.68;3.92;;;;;;;;;;5114591;27;20631;-46
2022/07/20 07:04:59;;;;;;;8.10;4.00;;;;;;;;;;5112025;27;20441;-48
2022/07/20 07:07:25;;;;;;;7.25;5.32;;;;;;;;;;5112432;27;20580;-50
2022/07/20 07:09:50;;;;;;;14.82;4.25;;;;;;;;;;5111282;27;20050;-47
2022/07/20 07:12:15;;;;;;;4.97;3.58;;;;;;;;;;5112178;27;20128;-50
2022/07/20 07:14:41;;;;;;;5.43;3.03;;;;;;;;;;5112093;27;20576;-51
2022/07/20 07:17:06;;;;;;;5.70;3.75;;;;;;;;;;5112934;27;20038;-52
2022/07/20 07:19:31;;;;;;;10.57;3.85;;;;;;;;;;5112887;28;20498;-48
2022/07/20 07:21:57;;;;;;;5.45;4.50;;;;;;;;;;5116267;27;20081;-50
2022/07/20 07:24:22;;;;;;;5.20;3.83;;;;;;;;;;5116434;27;20059;-54
2022/07/20 07:26:47;;;;;;;4.47;2.90;;;;;;;;;;5115020;27;20149;-53
2022/07/20 07:29:14;;;;;;;5.22;2.58;;;;;;;;;;5112373;27;20059;-52
2022/07/20 07:31:39;;;;;;;3.42;2.20;;;;;;;;;;5115668;27;20150;-56
2022/07/20 07:34:05;;;;;;;8.98;3.25;;;;;;;;;;5116390;28;20040;-46
2022/07/20 07:36:30;;;;;;;2.70;2.13;;;;;;;;;;5119586;27;20063;-53
2022/07/20 07:38:55;;;;;;;5.43;1.65;;;;;;;;;;5118735;27;20562;-46
2022/07/20 07:41:21;;;;;;;2.78;2.53;;;;;;;;;;5118420;27;20104;-50
2022/07/20 07:43:46;;;;;;;2.97;1.80;;;;;;;;;;5116302;27;20078;-53
2022/07/20 07:46:12;;;;;;;2.10;1.90;;;;;;;;;;5117223;27;20134;-48
2022/07/20 07:48:38;;;;;;;6.55;2.65;;;;;;;;;;5117247;28;20047;-54
2022/07/20 07:51:03;;;;;;;4.93;3.95;;;;;;;;;;5114504;27;20570;-53
2022/07/20 07:53:29;;;;;;;11.02;7.05;;;;;;;;;;5117148;27;20105;-54
2022/07/20 07:55:54;;;;;;;5.00;4.20;;;;;;;;;;5119434;27;20118;-53
2022/07/20 07:58:20;;;;;;;5.70;3.45;;;;;;;;;;5116712;27;20508;-53
2022/07/20 08:00:45;;;;;;;4.20;3.22;;;;;;;;;;5114797;27;20050;-52
2022/07/20 08:03:10;;;;;;;8.85;3.78;;;;;;;;;;5114043;27;20043;-54
2022/07/20 08:05:36;;;;;;;11.05;4.10;;;;;;;;;;5113748;27;20471;-53
2022/07/20 08:08:09;;;;;;;4.18;2.90;;;;;;;;;;5113345;27;20082;-52
2022/07/20 08:10:35;;;;;;;3.30;2.97;;;;;;;;;;5113100;27;20138;-54
2022/07/20 08:13:00;;;;;;;6.07;4.35;;;;;;;;;;5116127;27;20150;-50
2022/07/20 08:15:26;;;;;;;6.63;4.53;;;;;;;;;;5114447;28;20616;-53
2022/07/20 08:17:51;;;;;;;6.28;4.65;;;;;;;;;;5116401;27;20046;-55
2022/07/20 08:20:21;;;;;;;9.07;4.78;;;;;;;;;;5112099;27;20038;-54
2022/07/20 08:22:47;;;;;;;4.70;3.22;;;;;;;;;;5113006;27;20868;-52
2022/07/20 08:25:12;;;;;;;5.47;4.13;;;;;;;;;;5111392;27;20126;-58
2022/07/20 08:27:37;;;;;;;5.50;3.80;;;;;;;;;;5115250;27;20112;-59
2022/07/20 08:30:03;;;;;;;7.75;5.53;;;;;;;;;;5110090;27;20036;-57
2022/07/20 08:32:28;;;;;;;19.15;5.25;;;;;;;;;;5111710;27;20036;-36
2022/07/20 08:34:54;;;;;;;5.43;2.80;;;;;;;;;;5114029;27;20063;-60
2022/07/20 08:37:20;;;;;;;2.88;1.83;;;;;;;;;;5112420;28;20040;-59
2022/07/20 08:39:45;;;;;;;3.58;2.63;;;;;;;;;;5114612;27;20043;-59
2022/07/20 08:42:11;;;;;;;3.95;3.55;;;;;;;;;;5106343;27;20361;-59
2022/07/20 08:44:38;;;;;;;5.18;3.08;;;;;;;;;;5112666;27;20055;-60
2022/07/20 08:47:04;;;;;;;5.18;4.57;;;;;;;;;;5115976;27;20039;-59
2022/07/20 08:49:30;;;;;;;2.50;2.05;;;;;;;;;;5110651;27;20083;-59
2022/07/20 08:51:55;;;;;;;5.43;2.95;;;;;;;;;;5115289;27;20390;-59
2022/07/20 08:54:20;;;;;;;7.32;2.55;;;;;;;;;;5117048;27;20143;-59
2022/07/20 08:56:45;;;;;;;7.13;2.45;;;;;;;;;;5116327;27;20174;-58
2022/07/20 08:59:11;;;;;;;5.18;2.80;;;;;;;;;;5113171;27;20048;-61
2022/07/20 09:01:56;;;;;;;2.50;1.95;;;;;;;;;;5115101;27;20107;-60
2022/07/20 09:04:21;;;;;;;5.72;2.80;;;;;;;;;;5110618;28;20039;-60
2022/07/20 09:06:50;;;;;;;2.42;1.73;;;;;;;;;;5113439;27;20439;-60
2022/07/20 09:09:16;;;;;;;3.05;2.75;;;;;;;;;;5114704;28;20058;-60
2022/07/20 09:11:41;;;;;;;4.22;2.28;;;;;;;;;;5113238;28;20437;-61
2022/07/20 09:14:06;;;;;;;3.65;2.70;;;;;;;;;;5115040;27;20081;-60
2022/07/20 09:16:48;;;;;;;2.28;1.40;;;;;;;;;;5108703;27;20189;-59
2022/07/20 09:19:16;;;;;;;2.58;1.92;;;;;;;;;;5111142;28;20047;-60
2022/07/20 09:21:41;;;;;;;9.73;3.92;;;;;;;;;;5111397;28;20207;-60
2022/07/20 09:24:08;;;;;;;3.50;2.28;;;;;;;;;;5114713;27;20558;-60
2022/07/20 09:26:33;;;;;;;2.03;1.23;;;;;;;;;;5113451;27;20120;-60
2022/07/20 09:29:00;;;;;;;2.65;2.17;;;;;;;;;;5111253;27;20498;-60
2022/07/20 09:31:33;;;;;;;6.93;2.17;;;;;;;;;;5116362;27;20129;-59
2022/07/20 09:33:58;;;;;;;2.72;1.77;;;;;;;;;;5118322;27;20100;-59
2022/07/20 09:36:25;;;;;;;9.02;2.72;;;;;;;;;;5113895;27;20035;-59
2022/07/20 09:38:50;;;;;;;2.10;1.38;;;;;;;;;;5112519;27;20035;-59
2022/07/20 09:41:26;;;;;;;2.17;1.98;;;;;;;;;;5113296;27;20051;-59
2022/07/20 09:43:52;;;;;;;5.13;2.50;;;;;;;;;;5111080;27;20055;-60
2022/07/20 09:46:19;;;;;;;2.10;1.65;;;;;;;;;;5112776;27;20546;-60
2022/07/20 09:48:44;;;;;;;7.97;1.52;;;;;;;;;;5110757;27;20046;-60
2022/07/20 09:51:20;;;;;;;2.70;1.92;;;;;;;;;;5111790;27;20047;-59
2022/07/20 09:53:46;;;;;;;1.88;1.55;;;;;;;;;;5111103;27;20051;-59
2022/07/20 09:56:14;;;;;;;5.80;1.63;;;;;;;;;;5108193;27;20140;-59
2022/07/20 09:58:40;;;;;;;4.15;2.47;;;;;;;;;;5109734;27;20580;-59
2022/07/20 10:01:05;;;;;;;2.45;1.10;;;;;;;;;;5114478;27;20074;-60
2022/07/20 10:03:31;;;;;;;4.45;2.28;;;;;;;;;;5113287;27;20531;-59
2022/07/20 10:05:56;;;;;;;2.90;1.60;;;;;;;;;;5110905;27;20685;-60
2022/07/20 10:08:23;;;;;;;4.85;2.33;;;;;;;;;;5116809;27;20504;-60
2022/07/20 10:10:48;;;;;;;4.93;1.55;;;;;;;;;;5112250;27;20039;-60
2022/07/20 10:13:13;;;;;;;3.10;1.38;;;;;;;;;;5111668;27;20587;-60
2022/07/20 10:15:51;;;;;;;1.42;1.13;;;;;;;;;;5114157;27;20189;-60
2022/07/20 10:18:17;;;;;;;2.03;1.38;;;;;;;;;;5110467;27;20035;-60
2022/07/20 10:20:42;;;;;;;3.55;1.85;;;;;;;;;;5112644;27;20551;-60
2022/07/20 10:23:14;;;;;;;2.22;1.75;;;;;;;;;;5113964;27;20089;-59
2022/07/20 10:25:39;;;;;;;2.58;1.58;;;;;;;;;;5113461;27;20059;-59
2022/07/20 10:28:22;;;;;;;3.88;1.98;;;;;;;;;;5108562;28;20042;-60
2022/07/20 10:30:56;;;;;;;4.20;2.83;;;;;;;;;;5105863;27;20048;-60
2022/07/20 10:33:21;;;;;;;4.25;3.42;;;;;;;;;;5114389;27;20063;-60
2022/07/20 10:35:48;;;;;;;3.03;2.58;;;;;;;;;;5114038;27;20086;-55
2022/07/20 10:38:17;;;;;;;17.70;3.88;;;;;;;;;;5110255;27;20506;-59
2022/07/20 10:44:05;;;;;;;6.18;2.08;;;;;;;;;;5111084;28;20058;-58
2022/07/20 10:46:31;;;;;;;2.63;1.95;;;;;;;;;;5110425;27;20075;-58
2022/07/20 10:48:56;;;;;;;6.10;3.20;;;;;;;;;;5110211;27;20051;-58
2022/07/20 10:51:22;;;;;;;2.83;2.33;;;;;;;;;;5111986;27;20404;-59
2022/07/20 10:53:47;;;;;;;2.60;1.48;;;;;;;;;;5110470;27;20548;-58
2022/07/20 10:56:12;;;;;;;1.88;1.50;;;;;;;;;;5109371;27;20032;-58
2022/07/20 10:58:40;;;;;;;2.42;1.88;;;;;;;;;;5110011;28;20027;-58
2022/07/20 11:01:07;;;;;;;4.72;2.45;;;;;;;;;;5111414;27;20047;-58
2022/07/20 11:03:44;;;;;;;2.38;2.17;;;;;;;;;;5117064;27;20039;-58
2022/07/20 11:06:15;;;;;;;2.03;1.40;;;;;;;;;;5115242;27;20076;-59
2022/07/20 11:08:48;;;;;;;2.20;1.83;;;;;;;;;;5112514;27;20036;-58
2022/07/20 11:11:17;;;;;;;3.15;2.00;;;;;;;;;;5112392;27;20040;-59
2022/07/20 11:13:43;;;;;;;3.70;2.70;;;;;;;;;;5110133;27;20044;-59
2022/07/20 11:16:08;;;;;;;2.45;1.88;;;;;;;;;;5112938;27;20344;-58
2022/07/20 11:18:33;;;;;;;5.10;2.10;;;;;;;;;;5113704;27;20066;-59
2022/07/20 11:21:09;;;;;;;4.07;2.47;;;;;;;;;;5115737;27;20047;-60
2022/07/20 11:23:39;;;;;;;2.67;1.92;;;;;;;;;;5112512;27;20063;-59
2022/07/20 11:26:04;;;;;;;;;;;;;;;;;;5111099;27;20069;-59
2022/07/20 11:28:31;;;;;;;5.37;1.90;;;;;;;;;;5114675;27;19920;-59
2022/07/20 11:30:57;;;;;;;2.30;1.80;;;;;;;;;;5112100;27;20850;-59
2022/07/20 11:33:41;;;;;;;2.08;1.25;;;;;;;;;;5112960;27;20043;-59
2022/07/20 11:36:14;;;;;;;2.50;1.73;;;;;;;;;;5113939;27;20062;-60
2022/07/20 11:38:41;;;;;;;1.48;1.15;;;;;;;;;;5112357;27;20046;-58
2022/07/20 11:41:07;;;;;;;9.70;1.77;;;;;;;;;;5114514;27;20043;-58
2022/07/20 11:43:33;;;;;;;2.47;1.98;;;;;;;;;;5115632;27;20059;-58
2022/07/20 11:46:17;;;;;;;1.77;1.63;;;;;;;;;;5111740;27;20445;-58
2022/07/20 11:48:45;;;;;;;2.42;1.83;;;;;;;;;;5110846;27;20078;-58
2022/07/20 11:51:11;;;;;;;2.13;1.58;;;;;;;;;;5107755;27;20042;-58
2022/07/20 11:53:38;;;;;;;3.25;2.00;;;;;;;;;;5112380;27;20044;-58
2022/07/20 11:56:09;;;;;;;3.03;1.30;;;;;;;;;;5113876;27;20063;-58
2022/07/20 11:58:36;;;;;;;5.78;1.98;;;;;;;;;;5114826;27;20156;-58
2022/07/20 12:01:03;;;;;;;5.40;2.35;;;;;;;;;;5115026;27;20115;-58
2022/07/20 12:03:30;;;;;;;2.58;1.85;;;;;;;;;;5112502;27;20035;-58
2022/07/20 12:05:59;;;;;;;2.80;1.50;;;;;;;;;;5109562;27;20039;-58
2022/07/20 12:08:24;;;;;;;4.30;2.05;;;;;;;;;;5107568;27;20036;-58
2022/07/20 12:10:50;;;;;;;2.67;1.45;;;;;;;;;;5115120;27;20050;-58
2022/07/20 12:13:16;;;;;;;13.02;1.35;;;;;;;;;;5112972;27;20108;-58
2022/07/20 12:16:02;;;;;;;4.90;2.58;;;;;;;;;;5109497;28;20629;-57
2022/07/20 12:18:37;;;;;;;3.50;1.95;;;;;;;;;;5112289;28;20035;-58
2022/07/20 12:21:03;;;;;;;3.33;1.70;;;;;;;;;;5118264;28;20071;-58
2022/07/20 12:23:29;;;;;;;5.25;2.40;;;;;;;;;;5116032;27;20174;-57
2022/07/20 12:25:54;;;;;;;2.95;1.55;;;;;;;;;;5114848;27;20149;-57
2022/07/20 12:28:29;;;;;;;2.15;1.55;;;;;;;;;;5111446;27;20145;-57
2022/07/20 12:31:08;;;;;;;1.70;1.40;;;;;;;;;;5113415;27;20047;-57
2022/07/20 12:33:33;;;;;;;1.70;1.27;;;;;;;;;;5116694;27;20038;-57
2022/07/20 12:36:03;;;;;;;4.18;1.10;;;;;;;;;;5111063;27;20039;-58
2022/07/20 12:38:31;;;;;;;2.28;2.05;;;;;;;;;;5112799;27;20030;-59
2022/07/20 12:40:57;;;;;;;1.63;0.90;;;;;;;;;;5114151;28;20048;-58
2022/07/20 12:43:31;;;;;;;6.05;3.45;;;;;;;;;;5098438;27;20054;-58
2022/07/20 12:46:00;;;;;;;4.10;2.15;;;;;;;;;;5111947;27;20063;-58
2022/07/20 12:48:25;;;;;;;3.00;1.90;;;;;;;;;;5112095;28;20130;-57
2022/07/20 12:50:51;;;;;;;1.95;1.75;;;;;;;;;;5113654;28;20476;-57
2022/07/20 12:53:16;;;;;;;4.07;2.05;;;;;;;;;;5116826;27;20040;-58
2022/07/20 12:55:41;;;;;;;2.30;1.83;;;;;;;;;;5115827;27;20504;-57
2022/07/20 12:58:06;;;;;;;1.67;1.45;;;;;;;;;;5121269;27;20725;-57
2022/07/20 13:00:32;;;;;;;1.92;1.10;;;;;;;;;;5116554;28;20449;-57
2022/07/20 13:02:58;;;;;;;2.75;2.45;;;;;;;;;;5114490;27;20133;-59
2022/07/20 13:05:24;;;;;;;1.70;1.30;;;;;;;;;;5114046;27;20073;-57
2022/07/20 13:07:49;;;;;;;5.78;2.20;;;;;;;;;;5110489;27;20089;-57
2022/07/20 13:10:15;;;;;;;14.48;2.17;;;;;;;;;;5117470;27;20412;-58
2022/07/20 13:12:41;;;;;;;3.72;2.05;;;;;;;;;;5113522;27;20036;-58
2022/07/20 13:15:06;;;;;;;2.33;2.10;;;;;;;;;;5114488;27;20035;-58
2022/07/20 13:17:35;;;;;;;2.75;1.92;;;;;;;;;;5117591;27;20513;-58
2022/07/20 13:20:01;;;;;;;1.90;1.50;;;;;;;;;;5112515;27;20050;-56
2022/07/20 13:22:26;;;;;;;1.85;1.25;;;;;;;;;;5111788;27;20043;-57
2022/07/20 13:24:51;;;;;;;4.63;4.22;;;;;;;;;;5117355;27;20043;-57
2022/07/20 13:27:17;;;;;;;2.17;1.60;;;;;;;;;;5112310;27;20064;-55
2022/07/20 13:29:42;;;;;;;3.08;2.30;;;;;;;;;;5116429;27;20043;-57
2022/07/20 13:32:07;;;;;;;3.85;2.70;;;;;;;;;;5113641;27;20429;-57
2022/07/20 13:34:33;;;;;;;1.35;1.02;;;;;;;;;;5112473;27;20128;-55
2022/07/20 13:36:58;;;;;;;1.60;1.30;;;;;;;;;;5117855;27;20041;-57
2022/07/20 13:39:23;;;;;;;2.70;1.70;;;;;;;;;;5109984;28;20039;-57
2022/07/20 13:41:49;;;;;;;1.98;1.58;;;;;;;;;;5114160;27;20047;-57
2022/07/20 13:44:14;;;;;;;1.35;1.08;;;;;;;;;;5115140;27;20468;-57
2022/07/20 13:46:40;;;;;;;1.88;1.67;;;;;;;;;;5113192;27;20561;-57
2022/07/20 13:49:06;;;;;;;1.52;1.20;;;;;;;;;;5116163;27;20489;-57
2022/07/20 13:51:31;;;;;;;2.53;1.83;;;;;;;;;;5117438;27;20047;-57
2022/07/20 13:53:56;;;;;;;3.13;2.30;;;;;;;;;;5109942;28;20117;-57
2022/07/20 13:56:22;;;;;;;11.57;2.95;;;;;;;;;;5116600;27;20048;-56
2022/07/20 13:58:47;;;;;;;3.13;2.47;;;;;;;;;;5114081;27;20583;-55
2022/07/20 14:01:13;;;;;;;2.45;1.90;;;;;;;;;;5110588;27;20048;-56
2022/07/20 14:03:38;;;;;;;2.92;1.95;;;;;;;;;;5118070;27;20059;-55
2022/07/20 14:06:03;;;;;;;1.63;1.38;;;;;;;;;;5117261;27;20043;-57
2022/07/20 14:08:29;;;;;;;2.67;1.52;;;;;;;;;;5109854;27;20130;-55
2022/07/20 14:10:54;;;;;;;2.20;1.88;;;;;;;;;;5116092;27;20055;-57
2022/07/20 14:13:21;;;;;;;8.55;2.45;;;;;;;;;;5111262;27;20043;-57
2022/07/20 14:15:46;;;;;;;2.28;1.17;;;;;;;;;;5110508;27;20043;-57
2022/07/20 14:18:12;;;;;;;0.98;0.80;;;;;;;;;;5111586;27;20046;-56
2022/07/20 14:20:42;;;;;;;8.35;1.50;;;;;;;;;;5111361;28;20640;-56
2022/07/20 14:23:07;;;;;;;;;;;;;;;;;;5116889;27;20104;-55
2022/07/20 14:25:33;;;;;;;3.15;1.88;;;;;;;;;;5111476;28;20424;-57
2022/07/20 14:28:01;;;;;;;8.02;2.80;;;;;;;;;;5115498;27;20084;-57
2022/07/20 14:30:27;;;;;;;3.50;2.15;;;;;;;;;;5111865;28;20149;-56
2022/07/20 14:32:52;;;;;;;2.45;2.25;;;;;;;;;;5113133;27;20057;-57
2022/07/20 14:35:17;;;;;;;3.40;1.98;;;;;;;;;;5115063;28;20081;-56
2022/07/20 14:37:43;;;;;;;2.35;2.15;;;;;;;;;;5112005;27;20042;-57
2022/07/20 14:40:09;;;;;;;5.03;2.45;;;;;;;;;;5112543;27;20043;-57
2022/07/20 14:42:35;;;;;;;2.67;1.70;;;;;;;;;;5112941;27;20050;-58
2022/07/20 14:45:00;;;;;;;4.93;2.60;;;;;;;;;;5112860;27;20047;-58